Bucklin, Kansas
Current Conditions -  °F | °C
As of 7:52 AM on Thursday 30 Oct 2014 (Local Time) from KDDC Reporting Station
Clear Clear  
Wind Chill: 39°   Ceiling: Unl
Heat Index: 44°   Visibility: 10mi
Dew Point: 28°   Wind: 9mph
Humidity: 53%   Direction: 330°NNW
Pressure: 30.17"   Gusts: NA
Location:  37.55°N, 99.63°W
Report Text: KDDC 301252Z AUTO 33008KT 10SM CLR 07/M02 A3017 RMK AO2 SLP214 T00671022
Loading
Personal Weather Stations






























Interactive Weather Map
Tropical Storm Tracking
New forecast layout! Learn more

10-Day Weather Forecast

Advertisements
Track Severe Weather on mobile